Portada
METAR-TAF:

METAR-TAF

Aeroports :

Tarba-Lorda, França

latitud: 43-11N, longitud: 000-00W, altitud: 379 m

Observació

L'informe es va fer fa 6 hores i 40 minuts, a les 05:00 UTC
Vent 4 kt del Sud
Temperatura 15°C
Humitat 94%
Pressió 1020 hPa
Visibilitat 10 km o més
sense núvols per sota de 1500 mi sense presència de cumulonimbus.

METAR: LFBT 210500Z AUTO 17004KT CAVOK 15/14 Q1020 TEMPO BKN010

Hora: 13:40 (11:40 UTC)

Pronòstic

L'informe es va fer fa 6 hores i 40 minuts, a les 05:00 UTC
Pronòstic vàlid del 21 a les 06 UTC al 22 a les 06 UTC
Vent 5 kt del Sud/Sud-Est
Visibilitat 10 km o més
sense núvols per sota de 1500 mi sense presència de cumulonimbus.
Evolucionant progressivament
l' 21 a les 10 UTC al 21 a les 12 UTC
Vent 8 kt del Est/Nord-Est
Evolucionant progressivament
l' 21 a les 19 UTC al 21 a les 21 UTC
Vent 2 kt amb direcció variable

TAF: LFBT 210500Z 2106/2206 15005KT CAVOK BECMG 2110/2112 06008KT BECMG 2119/2121 VRB02KT

Observacions i pronòstics meteorològics de més de 4000 aeroports (METAR i TAF).

Les estacions disponibles són els punts grocs i vermells al mapa.

Posi el ratolí al punt desitjat per veure el nom de l'estació.

Feu clic per veure les observacions i els pronòstics meteorològics.

Per canviar el mapa: feu clic els botons verds amb una creu de color negre per apropar; al botó verd amb un guió per allunyar la imatge; o en les fletxes verdes per a mapes adjacents.


METAR-TAF: